sensor_id;sensor_type;location;lat;lon;timestamp;P1;durP1;ratioP1;P2;durP2;ratioP2
42840;SDS011;28491;46.898;7.660;2023-02-08T00:01:27;31.33;;;19.08;;
42840;SDS011;28491;46.898;7.660;2023-02-08T00:03:53;29.83;;;18.83;;
42840;SDS011;28491;46.898;7.660;2023-02-08T00:06:19;31.88;;;21.48;;
42840;SDS011;28491;46.898;7.660;2023-02-08T00:08:44;36.42;;;22.77;;
42840;SDS011;28491;46.898;7.660;2023-02-08T00:11:10;53.42;;;21.80;;
42840;SDS011;28491;46.898;7.660;2023-02-08T00:13:36;36.40;;;21.73;;
42840;SDS011;28491;46.898;7.660;2023-02-08T00:16:03;32.97;;;20.15;;
42840;SDS011;28491;46.898;7.660;2023-02-08T00:18:30;29.27;;;18.98;;
42840;SDS011;28491;46.898;7.660;2023-02-08T00:20:55;30.33;;;19.08;;
42840;SDS011;28491;46.898;7.660;2023-02-08T00:23:21;35.65;;;21.58;;
42840;SDS011;28491;46.898;7.660;2023-02-08T00:25:48;31.58;;;20.23;;
42840;SDS011;28491;46.898;7.660;2023-02-08T00:28:14;34.45;;;20.15;;
42840;SDS011;28491;46.898;7.660;2023-02-08T00:30:41;38.35;;;22.95;;
42840;SDS011;28491;46.898;7.660;2023-02-08T00:33:07;30.85;;;19.95;;
42840;SDS011;28491;46.898;7.660;2023-02-08T00:35:32;26.77;;;18.63;;
42840;SDS011;28491;46.898;7.660;2023-02-08T00:37:58;36.13;;;21.10;;
42840;SDS011;28491;46.898;7.660;2023-02-08T00:40:24;29.83;;;20.67;;
42840;SDS011;28491;46.898;7.660;2023-02-08T00:42:50;32.00;;;19.77;;
42840;SDS011;28491;46.898;7.660;2023-02-08T00:45:15;32.15;;;20.65;;
42840;SDS011;28491;46.898;7.660;2023-02-08T00:47:41;31.63;;;19.30;;
42840;SDS011;28491;46.898;7.660;2023-02-08T00:50:07;34.17;;;20.15;;
42840;SDS011;28491;46.898;7.660;2023-02-08T00:52:33;37.47;;;21.63;;
42840;SDS011;28491;46.898;7.660;2023-02-08T00:54:59;36.72;;;20.52;;
42840;SDS011;28491;46.898;7.660;2023-02-08T00:57:24;33.65;;;20.85;;
42840;SDS011;28491;46.898;7.660;2023-02-08T00:59:50;34.30;;;20.83;;
42840;SDS011;28491;46.898;7.660;2023-02-08T01:02:15;33.88;;;20.33;;
42840;SDS011;28491;46.898;7.660;2023-02-08T01:04:41;35.00;;;21.35;;
42840;SDS011;28491;46.898;7.660;2023-02-08T01:07:06;35.78;;;21.10;;
42840;SDS011;28491;46.898;7.660;2023-02-08T01:09:32;35.70;;;21.92;;
42840;SDS011;28491;46.898;7.660;2023-02-08T01:11:58;36.75;;;22.02;;
42840;SDS011;28491;46.898;7.660;2023-02-08T01:14:24;33.53;;;20.92;;
42840;SDS011;28491;46.898;7.660;2023-02-08T01:16:50;33.83;;;21.25;;
42840;SDS011;28491;46.898;7.660;2023-02-08T01:19:16;37.25;;;22.33;;
42840;SDS011;28491;46.898;7.660;2023-02-08T01:21:42;34.38;;;20.88;;
42840;SDS011;28491;46.898;7.660;2023-02-08T01:24:08;33.78;;;21.75;;
42840;SDS011;28491;46.898;7.660;2023-02-08T01:26:34;38.80;;;21.98;;
42840;SDS011;28491;46.898;7.660;2023-02-08T01:29:00;32.70;;;20.13;;
42840;SDS011;28491;46.898;7.660;2023-02-08T01:31:30;31.27;;;20.65;;
42840;SDS011;28491;46.898;7.660;2023-02-08T01:33:58;37.15;;;23.55;;
42840;SDS011;28491;46.898;7.660;2023-02-08T01:36:25;34.20;;;21.13;;
42840;SDS011;28491;46.898;7.660;2023-02-08T01:38:52;34.55;;;21.50;;
42840;SDS011;28491;46.898;7.660;2023-02-08T01:41:19;35.83;;;20.55;;
42840;SDS011;28491;46.898;7.660;2023-02-08T01:46:38;37.67;;;21.13;;
42840;SDS011;28491;46.898;7.660;2023-02-08T01:49:07;36.13;;;20.52;;
42840;SDS011;28491;46.898;7.660;2023-02-08T01:51:46;33.20;;;20.63;;
42840;SDS011;28491;46.898;7.660;2023-02-08T01:54:39;38.15;;;21.20;;
42840;SDS011;28491;46.898;7.660;2023-02-08T01:57:12;34.50;;;21.48;;
42840;SDS011;28491;46.898;7.660;2023-02-08T01:59:40;35.92;;;20.95;;
42840;SDS011;28491;46.898;7.660;2023-02-08T02:02:10;38.35;;;21.63;;
42840;SDS011;28491;46.898;7.660;2023-02-08T02:04:38;35.92;;;21.20;;
42840;SDS011;28491;46.898;7.660;2023-02-08T02:07:04;37.90;;;22.25;;
42840;SDS011;28491;46.898;7.660;2023-02-08T02:09:31;36.17;;;22.23;;
42840;SDS011;28491;46.898;7.660;2023-02-08T02:12:04;33.58;;;22.23;;
42840;SDS011;28491;46.898;7.660;2023-02-08T02:14:31;36.88;;;21.67;;
42840;SDS011;28491;46.898;7.660;2023-02-08T02:17:00;33.00;;;20.85;;
42840;SDS011;28491;46.898;7.660;2023-02-08T02:22:04;33.28;;;20.35;;
42840;SDS011;28491;46.898;7.660;2023-02-08T02:25:04;35.00;;;22.48;;
42840;SDS011;28491;46.898;7.660;2023-02-08T02:35:47;38.95;;;21.40;;
42840;SDS011;28491;46.898;7.660;2023-02-08T02:44:31;35.72;;;21.88;;
42840;SDS011;28491;46.898;7.660;2023-02-08T02:47:08;35.63;;;22.77;;
42840;SDS011;28491;46.898;7.660;2023-02-08T02:49:52;34.35;;;21.88;;
42840;SDS011;28491;46.898;7.660;2023-02-08T02:52:24;38.92;;;22.38;;
42840;SDS011;28491;46.898;7.660;2023-02-08T02:54:57;46.25;;;22.35;;
42840;SDS011;28491;46.898;7.660;2023-02-08T02:57:30;41.60;;;24.38;;
42840;SDS011;28491;46.898;7.660;2023-02-08T02:59:57;41.40;;;23.25;;
42840;SDS011;28491;46.898;7.660;2023-02-08T03:02:24;36.22;;;22.80;;
42840;SDS011;28491;46.898;7.660;2023-02-08T03:04:52;39.80;;;24.23;;
42840;SDS011;28491;46.898;7.660;2023-02-08T03:10:03;39.63;;;22.13;;
42840;SDS011;28491;46.898;7.660;2023-02-08T03:12:54;35.83;;;21.98;;
42840;SDS011;28491;46.898;7.660;2023-02-08T03:18:21;38.90;;;21.73;;
42840;SDS011;28491;46.898;7.660;2023-02-08T03:29:06;37.35;;;24.70;;
42840;SDS011;28491;46.898;7.660;2023-02-08T03:31:40;35.25;;;20.52;;
42840;SDS011;28491;46.898;7.660;2023-02-08T03:39:38;36.17;;;23.48;;
42840;SDS011;28491;46.898;7.660;2023-02-08T03:42:07;40.00;;;23.65;;
42840;SDS011;28491;46.898;7.660;2023-02-08T03:44:56;40.53;;;24.33;;
42840;SDS011;28491;46.898;7.660;2023-02-08T03:47:27;37.00;;;21.85;;
42840;SDS011;28491;46.898;7.660;2023-02-08T03:49:57;40.03;;;24.13;;
42840;SDS011;28491;46.898;7.660;2023-02-08T03:52:26;37.08;;;22.13;;
42840;SDS011;28491;46.898;7.660;2023-02-08T03:54:58;41.67;;;25.00;;
42840;SDS011;28491;46.898;7.660;2023-02-08T03:57:28;39.53;;;23.80;;
42840;SDS011;28491;46.898;7.660;2023-02-08T04:00:00;38.50;;;21.50;;
42840;SDS011;28491;46.898;7.660;2023-02-08T04:02:30;37.83;;;22.92;;
42840;SDS011;28491;46.898;7.660;2023-02-08T04:05:00;38.65;;;24.25;;
42840;SDS011;28491;46.898;7.660;2023-02-08T04:07:26;38.03;;;24.02;;
42840;SDS011;28491;46.898;7.660;2023-02-08T04:09:51;40.28;;;24.67;;
42840;SDS011;28491;46.898;7.660;2023-02-08T04:12:17;40.83;;;22.77;;
42840;SDS011;28491;46.898;7.660;2023-02-08T04:14:42;37.92;;;21.60;;
42840;SDS011;28491;46.898;7.660;2023-02-08T04:17:08;40.03;;;23.60;;
42840;SDS011;28491;46.898;7.660;2023-02-08T04:19:33;30.40;;;19.95;;
42840;SDS011;28491;46.898;7.660;2023-02-08T04:21:59;39.45;;;24.30;;
42840;SDS011;28491;46.898;7.660;2023-02-08T04:24:25;36.70;;;22.15;;
42840;SDS011;28491;46.898;7.660;2023-02-08T04:26:50;37.38;;;24.90;;
42840;SDS011;28491;46.898;7.660;2023-02-08T04:29:16;36.95;;;22.80;;
42840;SDS011;28491;46.898;7.660;2023-02-08T04:31:42;36.08;;;23.27;;
42840;SDS011;28491;46.898;7.660;2023-02-08T04:34:07;33.05;;;20.05;;
42840;SDS011;28491;46.898;7.660;2023-02-08T04:36:33;34.72;;;20.85;;
42840;SDS011;28491;46.898;7.660;2023-02-08T04:38:58;36.47;;;22.05;;
42840;SDS011;28491;46.898;7.660;2023-02-08T04:41:24;33.92;;;21.40;;
42840;SDS011;28491;46.898;7.660;2023-02-08T04:43:49;37.97;;;20.98;;
42840;SDS011;28491;46.898;7.660;2023-02-08T04:46:15;34.50;;;22.27;;
42840;SDS011;28491;46.898;7.660;2023-02-08T04:48:40;38.08;;;23.55;;
42840;SDS011;28491;46.898;7.660;2023-02-08T04:51:06;38.28;;;20.58;;
42840;SDS011;28491;46.898;7.660;2023-02-08T04:53:31;32.08;;;20.63;;
42840;SDS011;28491;46.898;7.660;2023-02-08T04:55:57;36.25;;;23.05;;
42840;SDS011;28491;46.898;7.660;2023-02-08T04:58:23;36.45;;;22.00;;
42840;SDS011;28491;46.898;7.660;2023-02-08T05:00:48;36.97;;;21.52;;
42840;SDS011;28491;46.898;7.660;2023-02-08T05:03:14;37.33;;;22.60;;
42840;SDS011;28491;46.898;7.660;2023-02-08T05:05:40;38.17;;;23.13;;
42840;SDS011;28491;46.898;7.660;2023-02-08T05:08:06;36.25;;;22.63;;
42840;SDS011;28491;46.898;7.660;2023-02-08T05:10:32;31.23;;;19.88;;
42840;SDS011;28491;46.898;7.660;2023-02-08T05:12:57;38.00;;;21.80;;
42840;SDS011;28491;46.898;7.660;2023-02-08T05:15:23;39.97;;;22.88;;
42840;SDS011;28491;46.898;7.660;2023-02-08T05:17:49;36.42;;;21.85;;
42840;SDS011;28491;46.898;7.660;2023-02-08T05:20:15;39.33;;;25.40;;
42840;SDS011;28491;46.898;7.660;2023-02-08T05:22:40;38.95;;;25.17;;
42840;SDS011;28491;46.898;7.660;2023-02-08T05:25:06;42.72;;;26.70;;
42840;SDS011;28491;46.898;7.660;2023-02-08T05:27:32;43.30;;;26.33;;
42840;SDS011;28491;46.898;7.660;2023-02-08T05:29:59;43.72;;;27.77;;
42840;SDS011;28491;46.898;7.660;2023-02-08T05:32:25;39.00;;;25.92;;
42840;SDS011;28491;46.898;7.660;2023-02-08T05:34:50;42.13;;;26.70;;
42840;SDS011;28491;46.898;7.660;2023-02-08T05:37:16;47.38;;;29.13;;
42840;SDS011;28491;46.898;7.660;2023-02-08T05:39:42;43.13;;;26.17;;
42840;SDS011;28491;46.898;7.660;2023-02-08T05:42:07;43.25;;;27.08;;
42840;SDS011;28491;46.898;7.660;2023-02-08T05:44:33;44.67;;;28.05;;
42840;SDS011;28491;46.898;7.660;2023-02-08T05:46:58;50.13;;;29.45;;
42840;SDS011;28491;46.898;7.660;2023-02-08T05:49:24;44.38;;;27.45;;
42840;SDS011;28491;46.898;7.660;2023-02-08T05:51:49;47.47;;;27.45;;
42840;SDS011;28491;46.898;7.660;2023-02-08T05:54:15;57.03;;;32.88;;
42840;SDS011;28491;46.898;7.660;2023-02-08T05:56:41;45.92;;;28.52;;
42840;SDS011;28491;46.898;7.660;2023-02-08T05:59:07;38.03;;;23.27;;
42840;SDS011;28491;46.898;7.660;2023-02-08T06:01:34;35.97;;;21.13;;
42840;SDS011;28491;46.898;7.660;2023-02-08T06:03:59;38.55;;;21.42;;
42840;SDS011;28491;46.898;7.660;2023-02-08T06:06:25;41.45;;;25.98;;
42840;SDS011;28491;46.898;7.660;2023-02-08T06:08:51;42.08;;;25.15;;
42840;SDS011;28491;46.898;7.660;2023-02-08T06:11:17;44.78;;;28.25;;
42840;SDS011;28491;46.898;7.660;2023-02-08T06:13:43;46.67;;;28.73;;
42840;SDS011;28491;46.898;7.660;2023-02-08T06:16:10;41.67;;;27.20;;
42840;SDS011;28491;46.898;7.660;2023-02-08T06:18:36;47.53;;;29.38;;
42840;SDS011;28491;46.898;7.660;2023-02-08T06:21:02;54.65;;;31.98;;
42840;SDS011;28491;46.898;7.660;2023-02-08T06:23:28;53.67;;;32.38;;
42840;SDS011;28491;46.898;7.660;2023-02-08T06:25:54;44.78;;;28.88;;
42840;SDS011;28491;46.898;7.660;2023-02-08T06:28:19;49.67;;;30.23;;
42840;SDS011;28491;46.898;7.660;2023-02-08T06:30:47;47.75;;;28.85;;
42840;SDS011;28491;46.898;7.660;2023-02-08T06:33:13;42.88;;;28.58;;
42840;SDS011;28491;46.898;7.660;2023-02-08T06:35:39;46.22;;;28.27;;
42840;SDS011;28491;46.898;7.660;2023-02-08T06:38:04;45.28;;;28.38;;
42840;SDS011;28491;46.898;7.660;2023-02-08T06:40:30;43.80;;;27.60;;
42840;SDS011;28491;46.898;7.660;2023-02-08T06:42:55;41.95;;;26.33;;
42840;SDS011;28491;46.898;7.660;2023-02-08T06:45:20;46.72;;;28.95;;
42840;SDS011;28491;46.898;7.660;2023-02-08T06:47:46;47.25;;;30.13;;
42840;SDS011;28491;46.898;7.660;2023-02-08T06:50:11;50.67;;;30.27;;
42840;SDS011;28491;46.898;7.660;2023-02-08T06:52:39;44.90;;;26.23;;
42840;SDS011;28491;46.898;7.660;2023-02-08T06:55:04;45.72;;;28.85;;
42840;SDS011;28491;46.898;7.660;2023-02-08T06:57:30;40.95;;;26.48;;
42840;SDS011;28491;46.898;7.660;2023-02-08T06:59:55;45.45;;;27.55;;
42840;SDS011;28491;46.898;7.660;2023-02-08T07:02:21;43.33;;;27.75;;
42840;SDS011;28491;46.898;7.660;2023-02-08T07:04:47;51.45;;;31.17;;
42840;SDS011;28491;46.898;7.660;2023-02-08T07:07:12;51.88;;;30.42;;
42840;SDS011;28491;46.898;7.660;2023-02-08T07:09:39;44.08;;;27.10;;
42840;SDS011;28491;46.898;7.660;2023-02-08T07:12:05;40.33;;;25.52;;
42840;SDS011;28491;46.898;7.660;2023-02-08T07:14:31;38.95;;;25.48;;
42840;SDS011;28491;46.898;7.660;2023-02-08T07:16:59;41.70;;;25.98;;
42840;SDS011;28491;46.898;7.660;2023-02-08T07:19:26;54.75;;;29.77;;
42840;SDS011;28491;46.898;7.660;2023-02-08T07:21:51;44.53;;;26.85;;
42840;SDS011;28491;46.898;7.660;2023-02-08T07:24:17;46.53;;;28.75;;
42840;SDS011;28491;46.898;7.660;2023-02-08T07:26:43;43.03;;;25.75;;
42840;SDS011;28491;46.898;7.660;2023-02-08T07:29:09;38.42;;;25.00;;
42840;SDS011;28491;46.898;7.660;2023-02-08T07:31:34;39.47;;;25.25;;
42840;SDS011;28491;46.898;7.660;2023-02-08T07:34:00;45.28;;;26.65;;
42840;SDS011;28491;46.898;7.660;2023-02-08T07:36:25;45.33;;;27.48;;
42840;SDS011;28491;46.898;7.660;2023-02-08T07:38:51;45.05;;;26.90;;
42840;SDS011;28491;46.898;7.660;2023-02-08T07:41:17;41.03;;;26.02;;
42840;SDS011;28491;46.898;7.660;2023-02-08T07:43:42;42.38;;;24.35;;
42840;SDS011;28491;46.898;7.660;2023-02-08T07:46:09;36.47;;;22.38;;
42840;SDS011;28491;46.898;7.660;2023-02-08T07:48:36;42.75;;;24.05;;
42840;SDS011;28491;46.898;7.660;2023-02-08T07:51:02;35.95;;;22.20;;
42840;SDS011;28491;46.898;7.660;2023-02-08T07:53:28;37.70;;;20.88;;
42840;SDS011;28491;46.898;7.660;2023-02-08T07:55:54;37.08;;;21.58;;
42840;SDS011;28491;46.898;7.660;2023-02-08T07:58:20;35.53;;;20.10;;
42840;SDS011;28491;46.898;7.660;2023-02-08T08:00:45;34.08;;;21.30;;
42840;SDS011;28491;46.898;7.660;2023-02-08T08:03:11;33.80;;;20.38;;
42840;SDS011;28491;46.898;7.660;2023-02-08T08:05:38;34.78;;;21.55;;
42840;SDS011;28491;46.898;7.660;2023-02-08T08:08:05;31.85;;;18.88;;
42840;SDS011;28491;46.898;7.660;2023-02-08T08:10:31;35.78;;;20.08;;
42840;SDS011;28491;46.898;7.660;2023-02-08T08:12:57;30.55;;;18.90;;
42840;SDS011;28491;46.898;7.660;2023-02-08T08:15:23;29.70;;;18.80;;
42840;SDS011;28491;46.898;7.660;2023-02-08T08:17:49;33.65;;;21.10;;
42840;SDS011;28491;46.898;7.660;2023-02-08T08:20:14;35.90;;;19.98;;
42840;SDS011;28491;46.898;7.660;2023-02-08T08:22:40;38.20;;;21.35;;
42840;SDS011;28491;46.898;7.660;2023-02-08T08:25:05;29.38;;;18.65;;
42840;SDS011;28491;46.898;7.660;2023-02-08T08:27:31;31.83;;;19.50;;
42840;SDS011;28491;46.898;7.660;2023-02-08T08:29:57;30.63;;;18.60;;
42840;SDS011;28491;46.898;7.660;2023-02-08T08:32:23;30.55;;;18.40;;
42840;SDS011;28491;46.898;7.660;2023-02-08T08:34:49;32.35;;;20.58;;
42840;SDS011;28491;46.898;7.660;2023-02-08T08:37:15;31.90;;;20.45;;
42840;SDS011;28491;46.898;7.660;2023-02-08T08:39:40;33.25;;;19.23;;
42840;SDS011;28491;46.898;7.660;2023-02-08T08:42:06;32.47;;;20.27;;
42840;SDS011;28491;46.898;7.660;2023-02-08T08:44:32;32.20;;;18.65;;
42840;SDS011;28491;46.898;7.660;2023-02-08T08:46:58;34.20;;;19.60;;
42840;SDS011;28491;46.898;7.660;2023-02-08T08:49:24;35.70;;;20.10;;
42840;SDS011;28491;46.898;7.660;2023-02-08T08:51:51;39.53;;;21.70;;
42840;SDS011;28491;46.898;7.660;2023-02-08T08:54:16;33.70;;;19.42;;
42840;SDS011;28491;46.898;7.660;2023-02-08T08:56:42;35.40;;;20.27;;
42840;SDS011;28491;46.898;7.660;2023-02-08T08:59:08;32.17;;;18.08;;
42840;SDS011;28491;46.898;7.660;2023-02-08T09:01:34;30.50;;;19.33;;
42840;SDS011;28491;46.898;7.660;2023-02-08T09:03:59;43.05;;;21.83;;
42840;SDS011;28491;46.898;7.660;2023-02-08T09:06:25;36.55;;;20.10;;
42840;SDS011;28491;46.898;7.660;2023-02-08T09:08:50;32.00;;;17.30;;
42840;SDS011;28491;46.898;7.660;2023-02-08T09:11:16;29.60;;;19.00;;
42840;SDS011;28491;46.898;7.660;2023-02-08T09:13:42;31.30;;;18.33;;
42840;SDS011;28491;46.898;7.660;2023-02-08T09:16:08;31.05;;;18.13;;
42840;SDS011;28491;46.898;7.660;2023-02-08T09:18:36;33.20;;;19.30;;
42840;SDS011;28491;46.898;7.660;2023-02-08T09:21:08;43.78;;;19.23;;
42840;SDS011;28491;46.898;7.660;2023-02-08T09:23:36;35.70;;;19.50;;
42840;SDS011;28491;46.898;7.660;2023-02-08T09:26:03;32.28;;;20.20;;
42840;SDS011;28491;46.898;7.660;2023-02-08T09:28:29;28.25;;;18.90;;
42840;SDS011;28491;46.898;7.660;2023-02-08T09:30:55;32.17;;;20.40;;
42840;SDS011;28491;46.898;7.660;2023-02-08T09:33:21;29.50;;;17.65;;
42840;SDS011;28491;46.898;7.660;2023-02-08T09:35:46;32.90;;;17.45;;
42840;SDS011;28491;46.898;7.660;2023-02-08T09:38:12;30.83;;;18.90;;
42840;SDS011;28491;46.898;7.660;2023-02-08T09:43:30;31.60;;;18.95;;
42840;SDS011;28491;46.898;7.660;2023-02-08T09:46:15;28.63;;;17.15;;
42840;SDS011;28491;46.898;7.660;2023-02-08T09:48:43;27.93;;;17.00;;
42840;SDS011;28491;46.898;7.660;2023-02-08T09:53:59;31.73;;;18.67;;
42840;SDS011;28491;46.898;7.660;2023-02-08T09:56:33;29.45;;;18.40;;
42840;SDS011;28491;46.898;7.660;2023-02-08T09:59:04;30.98;;;19.52;;
42840;SDS011;28491;46.898;7.660;2023-02-08T10:01:35;32.17;;;18.17;;
42840;SDS011;28491;46.898;7.660;2023-02-08T10:06:49;28.02;;;17.60;;
42840;SDS011;28491;46.898;7.660;2023-02-08T10:09:15;28.02;;;17.85;;
42840;SDS011;28491;46.898;7.660;2023-02-08T10:11:51;30.15;;;18.25;;
42840;SDS011;28491;46.898;7.660;2023-02-08T10:17:33;30.50;;;19.65;;
42840;SDS011;28491;46.898;7.660;2023-02-08T10:20:24;28.50;;;16.23;;
42840;SDS011;28491;46.898;7.660;2023-02-08T10:28:44;34.25;;;18.55;;
42840;SDS011;28491;46.898;7.660;2023-02-08T10:31:37;26.65;;;16.08;;
42840;SDS011;28491;46.898;7.660;2023-02-08T10:37:13;27.60;;;17.30;;
42840;SDS011;28491;46.898;7.660;2023-02-08T10:39:44;26.40;;;16.85;;
42840;SDS011;28491;46.898;7.660;2023-02-08T10:42:12;26.95;;;17.63;;
42840;SDS011;28491;46.898;7.660;2023-02-08T10:47:43;30.75;;;16.60;;
42840;SDS011;28491;46.898;7.660;2023-02-08T10:52:49;30.60;;;16.92;;
42840;SDS011;28491;46.898;7.660;2023-02-08T10:55:16;27.42;;;16.58;;
42840;SDS011;28491;46.898;7.660;2023-02-08T10:57:47;29.50;;;17.13;;
42840;SDS011;28491;46.898;7.660;2023-02-08T11:00:48;28.52;;;17.60;;
42840;SDS011;28491;46.898;7.660;2023-02-08T11:03:12;27.70;;;16.55;;
42840;SDS011;28491;46.898;7.660;2023-02-08T11:05:47;29.73;;;17.77;;
42840;SDS011;28491;46.898;7.660;2023-02-08T11:08:14;33.72;;;17.55;;
42840;SDS011;28491;46.898;7.660;2023-02-08T11:10:55;28.37;;;17.87;;
42840;SDS011;28491;46.898;7.660;2023-02-08T11:13:32;30.73;;;19.52;;
42840;SDS011;28491;46.898;7.660;2023-02-08T11:16:02;29.67;;;19.25;;
42840;SDS011;28491;46.898;7.660;2023-02-08T11:18:33;29.67;;;18.52;;
42840;SDS011;28491;46.898;7.660;2023-02-08T11:21:02;32.70;;;18.90;;
42840;SDS011;28491;46.898;7.660;2023-02-08T11:23:32;27.63;;;17.38;;
42840;SDS011;28491;46.898;7.660;2023-02-08T11:31:38;34.45;;;21.30;;
42840;SDS011;28491;46.898;7.660;2023-02-08T11:34:06;29.30;;;18.60;;
42840;SDS011;28491;46.898;7.660;2023-02-08T11:36:34;33.88;;;19.73;;
42840;SDS011;28491;46.898;7.660;2023-02-08T11:41:58;31.08;;;18.27;;
42840;SDS011;28491;46.898;7.660;2023-02-08T11:44:26;27.80;;;17.65;;
42840;SDS011;28491;46.898;7.660;2023-02-08T11:47:02;31.63;;;18.60;;
42840;SDS011;28491;46.898;7.660;2023-02-08T11:49:36;35.53;;;19.05;;
42840;SDS011;28491;46.898;7.660;2023-02-08T11:52:05;29.85;;;17.25;;
42840;SDS011;28491;46.898;7.660;2023-02-08T11:54:52;34.78;;;21.75;;
42840;SDS011;28491;46.898;7.660;2023-02-08T11:57:20;30.52;;;20.23;;
42840;SDS011;28491;46.898;7.660;2023-02-08T11:59:48;33.05;;;19.73;;
42840;SDS011;28491;46.898;7.660;2023-02-08T12:05:01;33.92;;;20.77;;
42840;SDS011;28491;46.898;7.660;2023-02-08T12:07:31;33.25;;;18.90;;
42840;SDS011;28491;46.898;7.660;2023-02-08T12:10:11;30.20;;;19.67;;
42840;SDS011;28491;46.898;7.660;2023-02-08T12:15:34;31.55;;;19.77;;
42840;SDS011;28491;46.898;7.660;2023-02-08T12:18:20;43.65;;;19.40;;
42840;SDS011;28491;46.898;7.660;2023-02-08T12:21:08;30.25;;;18.52;;
42840;SDS011;28491;46.898;7.660;2023-02-08T12:23:55;37.20;;;19.95;;
42840;SDS011;28491;46.898;7.660;2023-02-08T12:37:42;30.00;;;18.27;;
42840;SDS011;28491;46.898;7.660;2023-02-08T12:51:50;28.55;;;18.65;;
42840;SDS011;28491;46.898;7.660;2023-02-08T12:54:34;30.55;;;18.90;;
42840;SDS011;28491;46.898;7.660;2023-02-08T12:57:10;31.02;;;20.30;;
42840;SDS011;28491;46.898;7.660;2023-02-08T12:59:43;28.80;;;17.58;;
42840;SDS011;28491;46.898;7.660;2023-02-08T13:02:15;33.33;;;18.83;;
42840;SDS011;28491;46.898;7.660;2023-02-08T13:04:45;31.10;;;18.77;;
42840;SDS011;28491;46.898;7.660;2023-02-08T13:07:18;28.58;;;18.42;;
42840;SDS011;28491;46.898;7.660;2023-02-08T13:10:05;30.83;;;20.13;;
42840;SDS011;28491;46.898;7.660;2023-02-08T13:12:33;31.30;;;19.23;;
42840;SDS011;28491;46.898;7.660;2023-02-08T13:15:05;31.42;;;19.15;;
42840;SDS011;28491;46.898;7.660;2023-02-08T13:17:44;36.03;;;21.58;;
42840;SDS011;28491;46.898;7.660;2023-02-08T13:20:37;29.98;;;19.48;;
42840;SDS011;28491;46.898;7.660;2023-02-08T13:23:11;32.15;;;20.08;;
42840;SDS011;28491;46.898;7.660;2023-02-08T13:25:54;38.53;;;21.25;;
42840;SDS011;28491;46.898;7.660;2023-02-08T13:28:23;30.42;;;19.35;;
42840;SDS011;28491;46.898;7.660;2023-02-08T13:30:57;35.30;;;21.05;;
42840;SDS011;28491;46.898;7.660;2023-02-08T13:33:44;33.93;;;19.17;;
42840;SDS011;28491;46.898;7.660;2023-02-08T13:38:46;33.83;;;21.10;;
42840;SDS011;28491;46.898;7.660;2023-02-08T13:41:20;32.40;;;20.17;;
42840;SDS011;28491;46.898;7.660;2023-02-08T13:43:52;33.00;;;21.73;;
42840;SDS011;28491;46.898;7.660;2023-02-08T13:46:19;35.63;;;22.00;;
42840;SDS011;28491;46.898;7.660;2023-02-08T13:48:47;31.15;;;19.33;;
42840;SDS011;28491;46.898;7.660;2023-02-08T13:51:49;31.33;;;19.85;;
42840;SDS011;28491;46.898;7.660;2023-02-08T13:54:14;36.47;;;21.70;;
42840;SDS011;28491;46.898;7.660;2023-02-08T13:56:43;28.02;;;18.65;;
42840;SDS011;28491;46.898;7.660;2023-02-08T14:12:12;31.75;;;19.67;;
42840;SDS011;28491;46.898;7.660;2023-02-08T14:17:44;31.27;;;19.40;;
42840;SDS011;28491;46.898;7.660;2023-02-08T14:20:28;31.73;;;18.63;;
42840;SDS011;28491;46.898;7.660;2023-02-08T14:23:04;34.42;;;20.67;;
42840;SDS011;28491;46.898;7.660;2023-02-08T14:25:46;30.45;;;18.65;;
42840;SDS011;28491;46.898;7.660;2023-02-08T14:28:46;32.28;;;20.52;;
42840;SDS011;28491;46.898;7.660;2023-02-08T14:31:10;33.83;;;20.65;;
42840;SDS011;28491;46.898;7.660;2023-02-08T14:33:42;33.75;;;20.38;;
42840;SDS011;28491;46.898;7.660;2023-02-08T14:36:20;32.95;;;19.70;;
42840;SDS011;28491;46.898;7.660;2023-02-08T14:39:03;34.78;;;19.05;;
42840;SDS011;28491;46.898;7.660;2023-02-08T14:47:02;29.48;;;19.25;;
42840;SDS011;28491;46.898;7.660;2023-02-08T14:49:46;35.20;;;21.45;;
42840;SDS011;28491;46.898;7.660;2023-02-08T14:52:20;35.97;;;19.77;;
42840;SDS011;28491;46.898;7.660;2023-02-08T14:57:37;33.03;;;21.38;;
42840;SDS011;28491;46.898;7.660;2023-02-08T15:00:06;29.75;;;19.17;;
42840;SDS011;28491;46.898;7.660;2023-02-08T15:02:42;29.65;;;20.42;;
42840;SDS011;28491;46.898;7.660;2023-02-08T15:05:18;30.27;;;19.70;;
42840;SDS011;28491;46.898;7.660;2023-02-08T15:07:50;33.95;;;20.27;;
42840;SDS011;28491;46.898;7.660;2023-02-08T15:10:19;35.35;;;21.55;;
42840;SDS011;28491;46.898;7.660;2023-02-08T15:12:48;33.22;;;20.73;;
42840;SDS011;28491;46.898;7.660;2023-02-08T15:15:21;32.13;;;20.17;;
42840;SDS011;28491;46.898;7.660;2023-02-08T15:17:50;32.22;;;20.27;;
42840;SDS011;28491;46.898;7.660;2023-02-08T15:20:20;33.33;;;19.23;;
42840;SDS011;28491;46.898;7.660;2023-02-08T15:23:03;30.98;;;19.95;;
42840;SDS011;28491;46.898;7.660;2023-02-08T15:25:32;38.00;;;20.13;;
42840;SDS011;28491;46.898;7.660;2023-02-08T15:28:00;34.95;;;22.08;;
42840;SDS011;28491;46.898;7.660;2023-02-08T15:30:32;33.63;;;21.73;;
42840;SDS011;28491;46.898;7.660;2023-02-08T15:33:07;35.03;;;20.92;;
42840;SDS011;28491;46.898;7.660;2023-02-08T15:35:38;39.38;;;21.17;;
42840;SDS011;28491;46.898;7.660;2023-02-08T15:38:04;34.53;;;20.10;;
42840;SDS011;28491;46.898;7.660;2023-02-08T15:40:41;39.75;;;21.88;;
42840;SDS011;28491;46.898;7.660;2023-02-08T15:45:32;33.90;;;20.35;;
42840;SDS011;28491;46.898;7.660;2023-02-08T15:47:58;34.58;;;20.90;;
42840;SDS011;28491;46.898;7.660;2023-02-08T15:50:25;32.17;;;19.17;;
42840;SDS011;28491;46.898;7.660;2023-02-08T15:52:56;37.30;;;19.77;;
42840;SDS011;28491;46.898;7.660;2023-02-08T15:55:24;37.80;;;21.55;;
42840;SDS011;28491;46.898;7.660;2023-02-08T15:57:54;38.10;;;22.85;;
42840;SDS011;28491;46.898;7.660;2023-02-08T16:00:24;35.60;;;21.83;;
42840;SDS011;28491;46.898;7.660;2023-02-08T16:03:16;38.00;;;22.58;;
42840;SDS011;28491;46.898;7.660;2023-02-08T16:05:50;35.97;;;21.10;;
42840;SDS011;28491;46.898;7.660;2023-02-08T16:08:20;33.42;;;21.27;;
42840;SDS011;28491;46.898;7.660;2023-02-08T16:10:56;37.63;;;21.00;;
42840;SDS011;28491;46.898;7.660;2023-02-08T16:13:35;35.53;;;21.27;;
42840;SDS011;28491;46.898;7.660;2023-02-08T16:18:43;34.53;;;21.80;;
42840;SDS011;28491;46.898;7.660;2023-02-08T16:26:25;37.03;;;23.27;;
42840;SDS011;28491;46.898;7.660;2023-02-08T16:29:02;37.10;;;20.83;;
42840;SDS011;28491;46.898;7.660;2023-02-08T16:31:30;34.25;;;21.27;;
42840;SDS011;28491;46.898;7.660;2023-02-08T16:34:03;34.38;;;22.00;;
42840;SDS011;28491;46.898;7.660;2023-02-08T16:36:35;32.15;;;21.65;;
42840;SDS011;28491;46.898;7.660;2023-02-08T16:39:18;35.42;;;22.63;;
42840;SDS011;28491;46.898;7.660;2023-02-08T16:44:25;33.80;;;21.55;;
42840;SDS011;28491;46.898;7.660;2023-02-08T16:46:57;40.60;;;23.65;;
42840;SDS011;28491;46.898;7.660;2023-02-08T16:49:25;34.53;;;20.88;;
42840;SDS011;28491;46.898;7.660;2023-02-08T16:51:57;35.58;;;21.38;;
42840;SDS011;28491;46.898;7.660;2023-02-08T16:54:23;50.75;;;26.13;;
42840;SDS011;28491;46.898;7.660;2023-02-08T16:56:50;36.55;;;22.95;;